Time;durP1;ratioP1;P1;durP2;ratioP2;P2;SDS_P1;SDS_P2;PMS_P1;PMS_P2;Temp;Humidity;BMP_temperature;BMP_pressure;BME280_temperature;BME280_humidity;BME280_pressure;Samples;Min_cycle;Max_cycle;Signal;HPM_P1;HPM_P2
2022/07/14 00:01:36;;;;;;;4.10;2.17;;;19.80;88.30;;;;;;5044895;28;20539;-53
2022/07/14 00:04:03;;;;;;;2.27;2.07;;;19.80;87.50;;;;;;5041271;28;20564;-54
2022/07/14 00:06:31;;;;;;;2.07;1.83;;;19.70;85.50;;;;;;5049900;28;20466;-54
2022/07/14 00:08:58;;;;;;;5.80;2.43;;;19.70;83.60;;;;;;5055168;28;20504;-54
2022/07/14 00:11:25;;;;;;;5.37;2.53;;;19.70;83.80;;;;;;5058165;28;20453;-53
2022/07/14 00:13:52;;;;;;;2.37;2.17;;;19.60;79.30;;;;;;5054511;28;21326;-55
2022/07/14 00:16:18;;;;;;;5.40;2.13;;;19.60;79.00;;;;;;5058385;28;20486;-54
2022/07/14 00:18:45;;;;;;;2.53;2.40;;;19.60;79.00;;;;;;5048282;28;20457;-53
2022/07/14 00:21:12;;;;;;;4.10;2.43;;;19.50;75.70;;;;;;5043836;28;20462;-54
2022/07/14 00:23:40;;;;;;;2.10;2.00;;;19.40;75.50;;;;;;5039488;28;20531;-54
2022/07/14 00:26:07;;;;;;;4.67;2.60;;;19.40;73.00;;;;;;5045380;28;20820;-54
2022/07/14 00:28:34;;;;;;;2.50;2.40;;;19.30;68.70;;;;;;5050627;28;20511;-55
2022/07/14 00:31:03;;;;;;;1.83;1.70;;;19.30;67.00;;;;;;5048728;28;20454;-54
2022/07/14 00:33:30;;;;;;;2.10;1.90;;;19.20;64.40;;;;;;5047203;28;20535;-53
2022/07/14 00:35:56;;;;;;;2.57;2.47;;;19.20;63.90;;;;;;5045130;28;20521;-59
2022/07/14 00:38:23;;;;;;;9.13;1.80;;;19.10;62.70;;;;;;5050539;28;20524;-54
2022/07/14 00:40:51;;;;;;;1.90;1.80;;;19.10;61.00;;;;;;5049013;28;20535;-54
2022/07/14 00:43:18;;;;;;;2.10;2.00;;;19.00;58.80;;;;;;5048868;28;20852;-54
2022/07/14 00:45:45;;;;;;;2.70;2.10;;;19.00;56.60;;;;;;5048899;28;20483;-55
2022/07/14 00:48:12;;;;;;;2.23;2.03;;;18.90;53.30;;;;;;5047911;28;20539;-55
2022/07/14 00:50:41;;;;;;;2.03;1.93;;;18.90;53.00;;;;;;5038932;28;20458;-52
2022/07/14 00:53:09;;;;;;;2.20;2.00;;;18.80;51.60;;;;;;5041475;28;20979;-54
2022/07/14 00:55:35;;;;;;;1.87;1.77;;;18.80;50.60;;;;;;5048207;28;20481;-54
2022/07/14 00:58:03;;;;;;;2.13;2.03;;;18.80;50.50;;;;;;5049172;28;20462;-52
2022/07/14 01:00:30;;;;;;;4.00;2.20;;;18.80;52.20;;;;;;5047455;28;20568;-54
2022/07/14 01:02:57;;;;;;;6.13;2.23;;;18.70;53.70;;;;;;5044309;28;20478;-54
2022/07/14 01:05:24;;;;;;;2.60;2.00;;;18.70;55.90;;;;;;5043837;28;20482;-53
2022/07/14 01:07:50;;;;;;;3.83;2.27;;;18.60;52.40;;;;;;5045475;28;20458;-53
2022/07/14 01:10:17;;;;;;;2.90;2.00;;;18.60;52.60;;;;;;5046039;28;20459;-53
2022/07/14 01:12:46;;;;;;;3.97;2.00;;;18.50;53.00;;;;;;5040450;28;20536;-54
2022/07/14 01:15:16;;;;;;;2.10;1.87;;;18.50;50.50;;;;;;5043907;28;20483;-53
2022/07/14 01:17:43;;;;;;;1.87;1.73;;;18.50;50.00;;;;;;5048328;28;20955;-54
2022/07/14 01:20:10;;;;;;;1.63;1.53;;;18.40;51.10;;;;;;5046679;28;20543;-53
2022/07/14 01:22:38;;;;;;;3.40;2.30;;;18.30;52.20;;;;;;5038368;28;20485;-54
2022/07/14 01:25:06;;;;;;;5.37;1.90;;;18.30;48.90;;;;;;5046058;28;20458;-53
2022/07/14 01:27:33;;;;;;;4.40;2.00;;;18.30;53.70;;;;;;5043019;28;20543;-54
2022/07/14 01:30:00;;;;;;;2.20;1.37;;;18.20;54.80;;;;;;5043110;28;20711;-54
2022/07/14 01:32:26;;;;;;;5.57;1.80;;;18.20;54.50;;;;;;5046800;28;20499;-54
2022/07/14 01:34:54;;;;;;;2.83;1.73;;;18.20;56.90;;;;;;5047801;28;20485;-53
2022/07/14 01:37:21;;;;;;;1.90;1.70;;;18.10;58.40;;;;;;5046088;28;20454;-55
2022/07/14 01:39:49;;;;;;;3.27;2.13;;;18.10;55.70;;;;;;5051047;28;20500;-54
2022/07/14 01:42:16;;;;;;;4.30;2.37;;;18.00;53.60;;;;;;5050033;28;20462;-53
2022/07/14 01:44:42;;;;;;;2.70;1.87;;;18.00;53.10;;;;;;5052227;28;20983;-54
2022/07/14 01:47:09;;;;;;;3.50;1.93;;;18.00;51.30;;;;;;5047068;28;20607;-53
2022/07/14 01:49:36;;;;;;;3.23;1.93;;;18.00;53.20;;;;;;5045671;28;20461;-54
2022/07/14 01:52:02;;;;;;;2.80;2.33;;;17.90;47.70;;;;;;5050327;28;20535;-56
2022/07/14 01:54:29;;;;;;;2.37;2.17;;;17.80;47.50;;;;;;5048012;28;20884;-53
2022/07/14 01:56:57;;;;;;;6.40;2.20;;;17.80;42.60;;;;;;5052189;28;20885;-54
2022/07/14 01:59:24;;;;;;;3.23;2.37;;;17.70;42.80;;;;;;5049746;28;20462;-54
2022/07/14 02:01:50;;;;;;;8.20;2.00;;;17.70;40.00;;;;;;5039544;28;20497;-53
2022/07/14 02:04:19;;;;;;;3.70;1.50;;;17.60;37.70;;;;;;5051680;28;20479;-53
2022/07/14 02:06:47;;;;;;;7.23;2.50;;;17.60;36.60;;;;;;5047113;28;20922;-53
2022/07/14 02:09:14;;;;;;;4.23;1.83;;;17.50;34.00;;;;;;5044989;28;20462;-53
2022/07/14 02:14:26;;;;;;;3.37;2.13;;;17.40;28.80;;;;;;5049519;28;20483;-54
2022/07/14 02:16:54;;;;;;;2.10;1.90;;;17.40;28.70;;;;;;5041134;28;20486;-54
2022/07/14 02:19:21;;;;;;;3.43;2.10;;;17.30;28.50;;;;;;5052304;28;20466;-53
2022/07/14 02:21:47;;;;;;;3.90;1.80;;;17.30;26.40;;;;;;5043802;28;20458;-54
2022/07/14 02:24:14;;;;;;;2.03;1.83;;;17.30;26.40;;;;;;5044730;28;20514;-53
2022/07/14 02:26:42;;;;;;;3.50;1.60;;;17.20;25.30;;;;;;5045824;28;20967;-54
2022/07/14 02:29:09;;;;;;;4.03;1.97;;;17.10;21.10;;;;;;5052219;28;20492;-53
2022/07/14 02:31:38;;;;;;;4.40;2.27;;;17.10;20.90;;;;;;5049645;28;20489;-53
2022/07/14 02:34:05;;;;;;;4.63;2.27;;;17.10;83.10;;;;;;5047511;28;20887;-54
2022/07/14 02:36:32;;;;;;;8.10;2.00;;;17.00;93.60;;;;;;5051653;28;20516;-53
2022/07/14 02:38:59;;;;;;;5.40;2.50;;;17.00;85.90;;;;;;5050506;28;20497;-54
2022/07/14 02:41:25;;;;;;;9.07;1.80;;;16.80;99.90;;;;;;5046952;28;21017;-54
2022/07/14 02:43:52;;;;;;;2.30;1.40;;;16.80;99.90;;;;;;5050891;28;20477;-53
2022/07/14 02:46:18;;;;;;;3.77;1.93;;;16.80;99.90;;;;;;5043053;28;20483;-54
2022/07/14 02:48:46;;;;;;;6.17;2.17;;;16.70;93.00;;;;;;5046751;28;21894;-53
2022/07/14 02:51:13;;;;;;;4.97;1.80;;;16.60;93.60;;;;;;5043953;28;20457;-53
2022/07/14 02:53:40;;;;;;;10.20;2.00;;;16.60;97.20;;;;;;5048839;28;20544;-54
2022/07/14 02:56:07;;;;;;;2.70;1.67;;;16.60;99.90;;;;;;5049658;28;20787;-54
2022/07/14 02:58:34;;;;;;;5.33;2.17;;;16.50;99.90;;;;;;5048332;28;20497;-53
2022/07/14 03:01:01;;;;;;;3.37;1.60;;;16.50;99.90;;;;;;5050090;28;20535;-54
2022/07/14 03:03:28;;;;;;;9.70;2.27;;;16.50;99.90;;;;;;5046422;28;20489;-53
2022/07/14 03:05:56;;;;;;;10.40;1.80;;;16.40;99.90;;;;;;5037577;28;20442;-54
2022/07/14 03:08:22;;;;;;;3.83;1.53;;;16.30;99.90;;;;;;5049225;28;20485;-54
2022/07/14 03:10:49;;;;;;;9.47;2.33;;;16.30;99.90;;;;;;5047932;28;20496;-53
2022/07/14 03:13:16;;;;;;;8.53;1.73;;;16.30;99.90;;;;;;5052300;28;20500;-54
2022/07/14 03:15:42;;;;;;;9.30;1.70;;;16.20;99.90;;;;;;5046586;28;20551;-54
2022/07/14 03:18:09;;;;;;;4.20;1.87;;;16.20;99.90;;;;;;5039832;28;20486;-53
2022/07/14 03:20:35;;;;;;;3.53;2.00;;;16.20;99.90;;;;;;5050240;28;21030;-54
2022/07/14 03:23:03;;;;;;;7.30;2.43;;;16.10;99.90;;;;;;5049647;28;21167;-53
2022/07/14 03:25:30;;;;;;;7.20;2.37;;;16.10;99.90;;;;;;5050830;28;20504;-53
2022/07/14 03:27:57;;;;;;;5.57;2.17;;;16.10;99.90;;;;;;5052134;28;20458;-55
2022/07/14 03:30:24;;;;;;;7.37;2.37;;;16.00;99.90;;;;;;5045652;28;20504;-53
2022/07/14 03:32:51;;;;;;;6.63;3.00;;;15.90;99.90;;;;;;5049474;28;20489;-54
2022/07/14 03:35:17;;;;;;;2.80;1.90;;;15.90;99.90;;;;;;5045336;28;20458;-55
2022/07/14 03:37:44;;;;;;;6.43;2.37;;;15.80;99.90;;;;;;5058716;28;20551;-53
2022/07/14 03:40:13;;;;;;;7.43;2.47;;;15.80;99.90;;;;;;5057176;28;20568;-54
2022/07/14 03:42:40;;;;;;;3.33;1.73;;;15.80;99.90;;;;;;5057023;28;20488;-54
2022/07/14 03:45:07;;;;;;;4.70;1.80;;;15.70;99.90;;;;;;5051249;28;20458;-54
2022/07/14 03:47:34;;;;;;;8.50;2.30;;;15.70;99.90;;;;;;5050851;28;20464;-58
2022/07/14 03:50:00;;;;;;;6.73;2.03;;;15.70;99.90;;;;;;5044861;28;20516;-54
2022/07/14 03:52:27;;;;;;;12.17;2.60;;;15.60;99.90;;;;;;5045608;28;21034;-54
2022/07/14 03:54:53;;;;;;;6.70;2.50;;;15.70;99.90;;;;;;5049926;28;20493;-54
2022/07/14 03:57:21;;;;;;;12.53;2.17;;;15.70;99.90;;;;;;5047481;28;20521;-53
2022/07/14 03:59:48;;;;;;;9.73;3.00;;;15.70;99.90;;;;;;5042559;28;20465;-54
2022/07/14 04:02:15;;;;;;;8.50;2.80;;;15.60;99.90;;;;;;5045762;28;20466;-53
2022/07/14 04:04:41;;;;;;;12.03;2.37;;;15.70;99.90;;;;;;5048521;28;20490;-54
2022/07/14 04:07:08;;;;;;;5.03;1.93;;;15.60;99.90;;;;;;5043653;28;20491;-53
2022/07/14 04:09:35;;;;;;;6.27;1.83;;;15.60;99.90;;;;;;5045971;28;20469;-52
2022/07/14 04:12:02;;;;;;;9.13;2.37;;;15.50;99.90;;;;;;5048470;28;20543;-53
2022/07/14 04:14:29;;;;;;;11.10;2.50;;;15.50;99.90;;;;;;5050108;28;20497;-54
2022/07/14 04:16:57;;;;;;;7.83;2.23;;;15.40;99.90;;;;;;5041833;28;20563;-53
2022/07/14 04:19:23;;;;;;;8.70;2.00;;;15.50;99.90;;;;;;5049668;28;20544;-53
2022/07/14 04:21:50;;;;;;;4.53;1.90;;;15.40;99.90;;;;;;5046547;28;20504;-52
2022/07/14 04:24:17;;;;;;;10.50;3.00;;;15.40;99.90;;;;;;5050243;28;20514;-52
2022/07/14 04:26:43;;;;;;;13.87;2.00;;;15.40;99.90;;;;;;5048001;28;20482;-53
2022/07/14 04:29:11;;;;;;;10.83;2.83;;;15.40;99.90;;;;;;5046286;28;20482;-52
2022/07/14 04:31:39;;;;;;;9.30;2.50;;;15.40;99.90;;;;;;5049413;28;20472;-52
2022/07/14 04:34:05;;;;;;;10.00;2.70;;;15.50;99.90;;;;;;5043629;28;20512;-52
2022/07/14 04:36:32;;;;;;;14.17;3.20;;;15.50;99.90;;;;;;5048604;28;20539;-52
2022/07/14 04:38:59;;;;;;;8.40;2.57;;;15.50;99.90;;;;;;5050103;28;20870;-53
2022/07/14 04:41:25;;;;;;;7.10;2.57;;;15.60;99.90;;;;;;5047508;28;20466;-53
2022/07/14 04:43:52;;;;;;;5.30;2.40;;;15.50;99.90;;;;;;5045634;28;20509;-53
2022/07/14 04:46:19;;;;;;;16.63;2.83;;;15.40;99.90;;;;;;5048158;28;20884;-54
2022/07/14 04:54:15;;;;;;;14.17;3.33;;;15.50;99.90;;;;;;5049411;28;20465;-54
2022/07/14 04:56:41;;;;;;;10.03;2.60;;;15.40;99.90;;;;;;5049079;28;20518;-53
2022/07/14 04:59:08;;;;;;;8.63;2.87;;;15.50;99.90;;;;;;5048184;28;20458;-54
2022/07/14 05:01:35;;;;;;;7.23;2.60;;;15.50;99.90;;;;;;5046102;28;20466;-52
2022/07/14 05:04:03;;;;;;;11.73;2.47;;;15.60;99.90;;;;;;5044664;28;20509;-53
2022/07/14 05:06:30;;;;;;;15.10;2.60;;;15.60;99.90;;;;;;5048084;28;20520;-52
2022/07/14 05:08:56;;;;;;;7.10;2.50;;;15.60;99.90;;;;;;5052999;28;20516;-52
2022/07/14 05:11:23;;;;;;;14.93;3.40;;;15.60;99.90;;;;;;5055665;28;20469;-53
2022/07/14 05:13:51;;;;;;;7.70;2.33;;;15.70;99.90;;;;;;5057273;28;21003;-53
2022/07/14 05:16:18;;;;;;;9.90;2.20;;;15.70;99.90;;;;;;5054588;28;20485;-53
2022/07/14 05:18:44;;;;;;;13.83;2.57;;;15.70;99.90;;;;;;5047218;28;20575;-52
2022/07/14 05:21:12;;;;;;;13.10;1.80;;;15.80;99.90;;;;;;5045118;28;20545;-52
2022/07/14 05:23:39;;;;;;;11.57;2.80;;;15.80;99.90;;;;;;5048769;28;20578;-52
2022/07/14 05:26:11;;;;;;;8.40;2.27;;;15.70;99.90;;;;;;5038862;28;20494;-53
2022/07/14 05:28:37;;;;;;;8.83;2.40;;;15.80;99.90;;;;;;5043995;28;20493;-52
2022/07/14 05:31:04;;;;;;;9.03;2.63;;;15.80;99.90;;;;;;5043852;28;20983;-53
2022/07/14 05:33:31;;;;;;;8.17;2.30;;;15.80;99.90;;;;;;5046858;28;20595;-52
2022/07/14 05:35:57;;;;;;;6.63;2.00;;;15.90;99.90;;;;;;5042537;28;20458;-53
2022/07/14 05:38:25;;;;;;;8.40;1.80;;;15.90;99.90;;;;;;5040046;28;20282;-51
2022/07/14 05:40:52;;;;;;;9.47;2.73;;;15.90;99.90;;;;;;5042064;28;20500;-52
2022/07/14 05:43:19;;;;;;;11.00;2.33;;;15.90;99.90;;;;;;5041615;28;20518;-53
2022/07/14 05:45:46;;;;;;;9.93;2.70;;;15.90;99.90;;;;;;5043912;28;20469;-53
2022/07/14 05:48:13;;;;;;;12.03;2.50;;;15.90;99.90;;;;;;5040763;28;20485;-53
2022/07/14 05:50:39;;;;;;;11.90;2.87;;;16.00;99.90;;;;;;5048201;28;20512;-54
2022/07/14 05:53:06;;;;;;;9.20;2.63;;;16.00;99.90;;;;;;5046325;28;20516;-53
2022/07/14 05:55:34;;;;;;;10.60;2.20;;;16.00;99.90;;;;;;5047670;28;20489;-53
2022/07/14 05:58:01;;;;;;;8.87;2.50;;;16.10;99.90;;;;;;5045126;28;20517;-53
2022/07/14 06:00:27;;;;;;;10.77;2.43;;;16.10;99.90;;;;;;5044922;28;20481;-53
2022/07/14 06:02:54;;;;;;;12.63;2.67;;;16.10;99.90;;;;;;5046392;28;20521;-53
2022/07/14 06:05:20;;;;;;;8.33;2.40;;;16.10;24.10;;;;;;5048485;28;20493;-53
2022/07/14 06:07:47;;;;;;;10.60;2.13;;;16.10;25.00;;;;;;5046260;28;20487;-52
2022/07/14 06:10:13;;;;;;;19.63;2.47;;;16.20;26.40;;;;;;5043466;28;20910;-52
2022/07/14 06:12:41;;;;;;;9.27;2.67;;;16.10;26.20;;;;;;5044463;28;20544;-52
2022/07/14 06:15:09;;;;;;;8.73;3.27;;;16.20;21.50;;;;;;5046691;28;20458;-52
2022/07/14 06:17:35;;;;;;;12.60;3.33;;;16.30;23.50;;;;;;5041581;28;20506;-53
2022/07/14 06:20:06;;;;;;;10.83;2.57;;;16.30;22.00;;;;;;5045433;28;20515;-51
2022/07/14 06:22:32;;;;;;;4.73;2.00;;;16.30;39.60;;;;;;5052959;28;20490;-52
2022/07/14 06:24:59;;;;;;;7.90;1.57;;;16.30;40.70;;;;;;5050464;28;20985;-53
2022/07/14 06:27:26;;;;;;;7.63;2.30;;;16.40;40.70;;;;;;5040503;28;21049;-51
2022/07/14 06:29:54;;;;;;;6.23;1.40;;;16.40;47.60;;;;;;5047519;28;20560;-53
2022/07/14 06:32:23;;;;;;;7.83;1.70;;;16.50;48.10;;;;;;5038582;28;20475;-53
2022/07/14 06:34:49;;;;;;;11.60;1.80;;;16.50;47.30;;;;;;5046592;28;20974;-52
2022/07/14 06:37:16;;;;;;;8.13;2.40;;;16.60;55.50;;;;;;5044233;28;21560;-51
2022/07/14 06:39:43;;;;;;;6.67;1.70;;;16.70;49.30;;;;;;5040495;28;20485;-52
2022/07/14 06:42:09;;;;;;;7.70;1.60;;;16.70;48.30;;;;;;5040577;28;20501;-52
2022/07/14 06:44:36;;;;;;;11.07;2.20;;;16.80;67.70;;;;;;5046983;28;20469;-52
2022/07/14 06:47:04;;;;;;;11.47;2.60;;;16.80;67.90;;;;;;5051832;28;20482;-52
2022/07/14 06:49:30;;;;;;;10.43;2.70;;;16.80;63.30;;;;;;5044956;28;20967;-52
2022/07/14 06:51:57;;;;;;;7.63;1.67;;;16.90;65.90;;;;;;5044941;28;20511;-53
2022/07/14 06:54:25;;;;;;;6.03;1.93;;;17.00;67.00;;;;;;5045206;28;20493;-52
2022/07/14 06:56:52;;;;;;;4.47;1.30;;;17.10;90.50;;;;;;5052465;28;20893;-53
2022/07/14 06:59:19;;;;;;;6.30;1.40;;;17.10;91.70;;;;;;5049646;28;20458;-52
2022/07/14 07:01:45;;;;;;;8.03;2.07;;;17.10;85.40;;;;;;5040857;28;20967;-53
2022/07/14 07:04:13;;;;;;;7.20;2.47;;;17.20;73.60;;;;;;5046612;28;20501;-53
2022/07/14 07:06:44;;;;;;;5.03;1.70;;;17.20;79.00;;;;;;5051975;28;20551;-52
2022/07/14 07:09:12;;;;;;;13.30;2.10;;;17.20;89.90;;;;;;5051408;28;20438;-53
2022/07/14 07:11:39;;;;;;;8.17;3.00;;;17.10;86.40;;;;;;5050670;28;20879;-53
2022/07/14 07:14:06;;;;;;;3.60;1.53;;;17.10;97.40;;;;;;5047452;28;20531;-52
2022/07/14 07:16:33;;;;;;;11.50;2.27;;;17.10;96.30;;;;;;5044150;28;20470;-53
2022/07/14 07:19:00;;;;;;;4.80;1.90;;;17.20;95.90;;;;;;5047937;28;20501;-53
2022/07/14 07:21:28;;;;;;;4.80;1.43;;;17.30;90.40;;;;;;5045556;28;20458;-53
2022/07/14 07:23:55;;;;;;;8.60;1.53;;;17.40;99.90;;;;;;5047738;28;20525;-53
2022/07/14 07:26:24;;;;;;;3.23;1.20;;;17.40;99.90;;;;;;5048666;28;20523;-52
2022/07/14 07:28:51;;;;;;;4.67;1.23;;;17.40;99.90;;;;;;5051377;28;20511;-53
2022/07/14 07:31:18;;;;;;;3.57;1.30;;;17.50;99.90;;;;;;5047703;28;20449;-52
2022/07/14 07:33:45;;;;;;;1.57;0.90;;;17.60;99.90;;;;;;5041761;28;20488;-54
2022/07/14 07:36:12;;;;;;;8.27;1.40;;;17.60;99.90;;;;;;5050248;28;20458;-53
2022/07/14 07:38:40;;;;;;;2.60;0.93;;;17.60;99.90;;;;;;5048695;28;20522;-53
2022/07/14 07:41:06;;;;;;;3.77;1.60;;;17.70;99.90;;;;;;5041363;28;20502;-54
2022/07/14 07:43:34;;;;;;;7.77;1.80;;;17.70;99.90;;;;;;5041003;28;20545;-53
2022/07/14 07:46:02;;;;;;;8.07;1.80;;;17.70;99.90;;;;;;5044371;28;20455;-52
2022/07/14 07:48:29;;;;;;;4.63;1.63;;;17.80;99.90;;;;;;5049078;28;20884;-53
2022/07/14 07:50:56;;;;;;;5.60;1.17;;;17.80;99.90;;;;;;5048102;28;20539;-53
2022/07/14 07:53:23;;;;;;;10.03;1.50;;;17.90;99.90;;;;;;5046839;28;20512;-53
2022/07/14 07:55:51;;;;;;;7.27;1.20;;;17.90;99.90;;;;;;5051440;28;20494;-53
2022/07/14 07:58:18;;;;;;;5.60;1.30;;;17.90;99.90;;;;;;5048592;28;21003;-53
2022/07/14 08:00:45;;;;;;;1.80;1.00;;;18.00;99.90;;;;;;5048226;28;20862;-53
2022/07/14 08:03:12;;;;;;;3.40;1.23;;;18.00;99.90;;;;;;5061567;23;20521;-53
2022/07/14 08:05:40;;;;;;;6.17;1.50;;;18.10;99.90;;;;;;5050997;28;20468;-53
2022/07/14 08:08:08;;;;;;;1.73;0.60;;;18.10;99.90;;;;;;5044308;28;20446;-53
2022/07/14 08:10:34;;;;;;;2.17;0.93;;;18.10;99.90;;;;;;5050738;28;20545;-54
2022/07/14 08:13:02;;;;;;;6.60;1.40;;;18.20;99.90;;;;;;5041264;28;21011;-52
2022/07/14 08:15:29;;;;;;;6.50;2.03;;;18.40;99.90;;;;;;5030584;28;20473;-52
2022/07/14 08:17:56;;;;;;;4.57;1.30;;;18.60;99.90;;;;;;5015337;28;20516;-51
2022/07/14 08:20:22;;;;;;;5.23;1.43;;;18.70;99.90;;;;;;5041537;28;20477;-53
2022/07/14 08:22:51;;;;;;;4.97;1.40;;;18.80;99.90;;;;;;5037379;28;20474;-54
2022/07/14 08:25:17;;;;;;;4.07;0.73;;;18.80;99.90;;;;;;5018515;28;20956;-51
2022/07/14 08:27:44;;;;;;;1.90;1.20;;;18.90;99.90;;;;;;5026115;28;20488;-52
2022/07/14 08:30:12;;;;;;;6.33;1.43;;;18.90;99.90;;;;;;5029972;28;22311;-51
2022/07/14 08:32:40;;;;;;;1.40;0.90;;;18.90;99.90;;;;;;5021293;28;20466;-52
2022/07/14 08:35:10;;;;;;;4.37;1.30;;;19.00;99.90;;;;;;5034675;28;21172;-54
2022/07/14 08:37:36;;;;;;;7.17;1.30;;;19.00;99.90;;;;;;5023247;28;20498;-52
2022/07/14 08:40:05;;;;;;;5.63;1.33;;;19.00;99.90;;;;;;5015906;28;20467;-52
2022/07/14 08:42:32;;;;;;;0.80;0.80;;;19.00;99.90;;;;;;5034040;28;20495;-53
2022/07/14 08:45:00;;;;;;;4.10;1.70;;;19.00;99.90;;;;;;5019722;28;20965;-54
2022/07/14 08:47:28;;;;;;;4.73;1.33;;;19.10;99.90;;;;;;5034186;28;20544;-52
2022/07/14 08:49:55;;;;;;;3.50;1.30;;;19.20;99.90;;;;;;5030560;28;20978;-52
2022/07/14 08:52:22;;;;;;;2.37;1.23;;;19.30;99.90;;;;;;5030211;28;20542;-52
2022/07/14 08:54:49;;;;;;;3.60;1.20;;;19.50;99.90;;;;;;5036325;28;20839;-52
2022/07/14 08:57:15;;;;;;;5.03;1.53;;;19.60;99.90;;;;;;5032587;28;20475;-52
2022/07/14 08:59:42;;;;;;;6.17;1.23;;;19.70;99.90;;;;;;5021941;28;21153;-52
2022/07/14 09:02:10;;;;;;;5.10;1.10;;;19.80;99.90;;;;;;5027629;28;20507;-52
2022/07/14 09:04:38;;;;;;;4.63;1.20;;;19.80;99.90;;;;;;5025885;28;20502;-52
2022/07/14 09:07:05;;;;;;;10.60;1.60;;;19.80;99.90;;;;;;5016971;28;20462;-52
2022/07/14 09:09:34;;;;;;;3.83;1.03;;;19.80;99.90;;;;;;5040068;28;20943;-52
2022/07/14 09:12:04;;;;;;;10.17;1.73;;;20.00;99.90;;;;;;5030852;28;20466;-50
2022/07/14 09:17:16;;;;;;;4.03;1.20;;;20.20;99.90;;;;;;5019760;28;20535;-52
2022/07/14 09:20:09;;;;;;;2.50;1.13;;;20.30;99.90;;;;;;5035550;28;20475;-51
2022/07/14 09:22:38;;;;;;;12.80;1.90;;;20.30;99.90;;;;;;5031349;28;20474;-52
2022/07/14 09:25:08;;;;;;;12.60;1.17;;;20.40;99.90;;;;;;5039156;28;20459;-52
2022/07/14 09:27:35;;;;;;;2.07;1.00;;;20.60;99.90;;;;;;5018656;28;20463;-52
2022/07/14 09:30:02;;;;;;;2.53;1.13;;;20.70;99.90;;;;;;5029054;28;20490;-52
2022/07/14 09:32:51;;;;;;;4.93;0.93;;;20.80;99.90;;;;;;5035084;28;20506;-52
2022/07/14 09:35:21;;;;;;;1.80;1.10;;;20.80;99.90;;;;;;5030645;28;21025;-52
2022/07/14 09:37:49;;;;;;;2.17;0.80;;;20.70;99.90;;;;;;5032475;28;20581;-52
2022/07/14 09:40:25;;;;;;;2.60;0.80;;;20.60;99.90;;;;;;5038485;28;20498;-52
2022/07/14 09:42:56;;;;;;;9.87;1.90;;;20.60;99.90;;;;;;5016747;28;20481;-52
2022/07/14 09:45:25;;;;;;;10.70;1.40;;;20.70;99.90;;;;;;5019743;28;20468;-52
2022/07/14 09:47:53;;;;;;;5.03;1.57;;;20.70;99.90;;;;;;5017400;28;20486;-52
2022/07/14 09:50:37;;;;;;;3.70;1.20;;;20.70;99.90;;;;;;5022893;28;20493;-51
2022/07/14 09:53:19;;;;;;;7.10;1.30;;;20.80;99.90;;;;;;5020056;28;20480;-51
2022/07/14 09:55:52;;;;;;;3.53;1.37;;;20.70;99.90;;;;;;5028086;28;20467;-52
2022/07/14 09:58:19;;;;;;;5.93;2.37;;;20.80;99.90;;;;;;5024742;28;20486;-52
2022/07/14 10:00:58;;;;;;;3.47;1.23;;;20.90;99.90;;;;;;5036469;28;20474;-52
2022/07/14 10:03:27;;;;;;;2.97;1.27;;;21.00;99.90;;;;;;5029644;28;20934;-53
2022/07/14 10:05:56;;;;;;;3.27;0.97;;;21.20;99.90;;;;;;5027888;28;20470;-52
2022/07/14 10:08:26;;;;;;;4.77;1.10;;;21.30;99.90;;;;;;5027342;28;20482;-52
2022/07/14 10:10:54;;;;;;;4.70;1.10;;;21.40;99.90;;;;;;5017650;28;20504;-53
2022/07/14 10:13:22;;;;;;;5.27;1.37;;;21.40;99.90;;;;;;5031254;28;20481;-51
2022/07/14 10:15:50;;;;;;;2.43;1.13;;;21.50;99.90;;;;;;5036938;28;20467;-52
2022/07/14 10:18:17;;;;;;;1.73;0.87;;;21.50;99.90;;;;;;5034109;28;20490;-52
2022/07/14 10:20:47;;;;;;;2.33;1.03;;;21.70;99.90;;;;;;5026774;28;20470;-53
2022/07/14 10:23:15;;;;;;;7.63;1.00;;;21.70;99.90;;;;;;5033850;28;20486;-53
2022/07/14 10:25:42;;;;;;;1.97;1.00;;;21.60;99.90;;;;;;5022124;28;20528;-53
2022/07/14 10:28:08;;;;;;;2.37;0.90;;;21.70;99.90;;;;;;5028095;28;20489;-52
2022/07/14 10:30:42;;;;;;;5.23;1.60;;;21.80;99.90;;;;;;5034401;28;20443;-53
2022/07/14 10:33:18;;;;;;;2.93;1.50;;;21.80;99.90;;;;;;5028706;28;20540;-53
2022/07/14 10:36:00;;;;;;;3.73;1.50;;;21.70;99.90;;;;;;5032738;28;20434;-52
2022/07/14 10:38:52;;;;;;;4.20;0.97;;;21.80;99.90;;;;;;5022872;28;20515;-52
2022/07/14 10:41:33;;;;;;;3.10;1.13;;;21.90;99.90;;;;;;5030655;28;20482;-53
2022/07/14 10:44:07;;;;;;;3.60;1.20;;;22.10;99.90;;;;;;5029061;28;20528;-52
2022/07/14 10:46:37;;;;;;;10.33;1.37;;;22.10;99.90;;;;;;5034855;28;20671;-53
2022/07/14 10:49:06;;;;;;;1.20;1.10;;;22.00;99.90;;;;;;5040119;28;20528;-52
2022/07/14 10:51:33;;;;;;;4.00;1.20;;;21.90;99.90;;;;;;5036315;28;21202;-52
2022/07/14 10:54:06;;;;;;;2.30;0.73;;;21.80;99.90;;;;;;5020635;28;20489;-53
2022/07/14 10:56:32;;;;;;;5.03;2.33;;;21.90;99.90;;;;;;5030376;28;20470;-51
2022/07/14 10:59:35;;;;;;;3.23;0.80;;;21.90;99.90;;;;;;5036681;28;20552;-52
2022/07/14 11:02:33;;;;;;;1.10;0.93;;;22.00;99.90;;;;;;5016844;28;20455;-52
2022/07/14 11:05:14;;;;;;;3.43;0.90;;;22.10;99.90;;;;;;5032509;28;21221;-52
2022/07/14 11:07:47;;;;;;;2.13;1.00;;;22.30;99.90;;;;;;5020293;28;20471;-52
2022/07/14 11:11:09;;;;;;;1.30;0.90;;;22.30;99.90;;;;;;5025330;28;20518;-52
2022/07/14 11:14:06;;;;;;;5.90;0.80;;;22.30;99.90;;;;;;5027687;28;20577;-53
2022/07/14 11:16:57;;;;;;;10.97;1.37;;;22.20;99.90;;;;;;5031812;28;20471;-51
2022/07/14 11:19:30;;;;;;;3.27;0.83;;;22.30;99.90;;;;;;5030709;28;20478;-54
2022/07/14 11:22:18;;;;;;;1.40;0.60;;;22.40;99.90;;;;;;5030340;28;21018;-53
2022/07/14 11:24:50;;;;;;;1.43;1.00;;;22.50;99.90;;;;;;5019363;28;20476;-52
2022/07/14 11:27:38;;;;;;;3.37;1.10;;;22.60;99.90;;;;;;5025902;28;20486;-51
2022/07/14 11:30:26;;;;;;;3.10;1.00;;;22.70;99.90;;;;;;5013578;28;20462;-51
2022/07/14 11:33:05;;;;;;;8.87;1.10;;;22.70;99.90;;;;;;5029369;28;20828;-52
2022/07/14 11:38:33;;;;;;;3.60;0.80;;;22.80;99.90;;;;;;5020594;28;20915;-52
2022/07/14 11:41:00;;;;;;;2.90;1.10;;;22.80;99.90;;;;;;5025610;28;20461;-53
2022/07/14 11:43:41;;;;;;;4.10;1.20;;;22.80;99.90;;;;;;5038575;28;20486;-51
2022/07/14 11:46:11;;;;;;;4.17;1.37;;;22.80;99.90;;;;;;5039151;28;20450;-52
2022/07/14 11:48:39;;;;;;;6.17;1.20;;;22.80;99.90;;;;;;5037634;28;20462;-52
2022/07/14 11:51:08;;;;;;;5.03;1.37;;;22.90;99.90;;;;;;5024780;28;21167;-51
2022/07/14 11:53:36;;;;;;;2.30;1.10;;;22.80;99.90;;;;;;5023640;28;20487;-51
2022/07/14 11:56:04;;;;;;;1.57;0.60;;;22.90;99.90;;;;;;5033730;28;20439;-53
2022/07/14 11:58:32;;;;;;;3.43;0.90;;;23.00;99.90;;;;;;5031189;28;20525;-52
2022/07/14 12:01:00;;;;;;;2.20;0.90;;;23.10;99.90;;;;;;5028803;28;20986;-52
2022/07/14 12:03:29;;;;;;;1.30;0.53;;;23.20;99.90;;;;;;5032204;28;20569;-52
2022/07/14 12:05:58;;;;;;;3.30;1.83;;;23.20;99.90;;;;;;5032164;28;20523;-52
2022/07/14 12:08:28;;;;;;;3.13;1.00;;;23.10;99.90;;;;;;5027262;28;20514;-52
2022/07/14 12:10:55;;;;;;;3.20;1.13;;;23.10;99.90;;;;;;5022362;28;20459;-52
2022/07/14 12:13:21;;;;;;;1.40;0.73;;;23.20;99.90;;;;;;5023552;28;20484;-54
2022/07/14 12:15:48;;;;;;;5.47;0.90;;;23.30;99.90;;;;;;5032120;28;20489;-53
2022/07/14 12:18:15;;;;;;;4.30;1.03;;;23.20;99.90;;;;;;5022973;28;20802;-53
2022/07/14 12:20:45;;;;;;;1.87;0.73;;;23.30;99.90;;;;;;5032716;28;20467;-53
2022/07/14 12:23:13;;;;;;;1.43;0.70;;;23.10;99.90;;;;;;5023151;28;21003;-53
2022/07/14 12:25:43;;;;;;;1.87;0.60;;;23.40;99.90;;;;;;5031683;28;20467;-52
2022/07/14 12:28:11;;;;;;;3.03;0.90;;;23.50;99.90;;;;;;5037967;28;20517;-54
2022/07/14 12:30:46;;;;;;;1.67;1.10;;;23.60;99.90;;;;;;5023922;28;20466;-52
2022/07/14 12:33:15;;;;;;;0.87;0.73;;;23.70;99.90;;;;;;5030982;28;21333;-52
2022/07/14 12:35:45;;;;;;;4.63;0.90;;;23.50;99.90;;;;;;5035306;28;21117;-52
2022/07/14 12:38:13;;;;;;;5.90;0.97;;;23.70;99.90;;;;;;5020555;28;20459;-52
2022/07/14 12:40:41;;;;;;;4.00;0.90;;;23.80;99.90;;;;;;5024497;28;20471;-52
2022/07/14 12:43:09;;;;;;;1.73;0.80;;;23.80;99.90;;;;;;5034549;28;20487;-52
2022/07/14 12:46:02;;;;;;;13.80;1.17;;;24.00;99.90;;;;;;5034218;28;20467;-52
2022/07/14 12:48:29;;;;;;;1.33;0.50;;;24.20;99.90;;;;;;5043590;28;20496;-51
2022/07/14 12:50:58;;;;;;;3.00;0.70;;;24.30;99.90;;;;;;5031981;28;20458;-52
2022/07/14 12:53:24;;;;;;;2.93;1.27;;;24.40;99.90;;;;;;5012809;28;20479;-52
2022/07/14 12:55:59;;;;;;;3.10;0.80;;;24.30;99.90;;;;;;5044682;28;21354;-52
2022/07/14 12:58:28;;;;;;;2.20;0.90;;;24.20;99.90;;;;;;5038860;28;20457;-51
2022/07/14 13:00:55;;;;;;;3.03;0.73;;;24.20;99.90;;;;;;5016303;28;20499;-51
2022/07/14 13:03:22;;;;;;;2.57;0.80;;;24.20;99.90;;;;;;5026823;28;20532;-52
2022/07/14 13:05:54;;;;;;;2.30;0.83;;;24.20;99.90;;;;;;5030760;28;20449;-52
2022/07/14 13:08:36;;;;;;;5.10;1.17;;;23.90;99.90;;;;;;5017799;28;20462;-52